createdAt,value
2022-09-05T00:00:02.806Z,16.30
2022-09-05T00:02:48.915Z,16.20
2022-09-05T00:06:02.139Z,16.30
2022-09-05T00:08:39.814Z,16.20
2022-09-05T00:11:40.837Z,16.30
2022-09-05T00:14:34.241Z,16.20
2022-09-05T00:17:32.160Z,16.30
2022-09-05T00:24:25.692Z,16.30
2022-09-05T00:24:35.811Z,16.20
2022-09-05T00:26:22.921Z,16.20
2022-09-05T00:29:02.945Z,16.20
2022-09-05T00:31:53.749Z,16.20
2022-09-05T00:34:48.063Z,16.20
2022-09-05T00:37:28.951Z,16.20
2022-09-05T00:40:18.307Z,16.10
2022-09-05T00:42:52.726Z,16.10
2022-09-05T00:45:29.119Z,16.00
2022-09-05T00:48:15.220Z,16.00
2022-09-05T00:51:05.072Z,15.90
2022-09-05T00:53:43.412Z,15.80
2022-09-05T00:56:27.725Z,15.70
2022-09-05T00:59:43.393Z,15.70
2022-09-05T01:02:46.536Z,15.70
2022-09-05T01:05:30.405Z,15.70
2022-09-05T01:08:19.927Z,15.70
2022-09-05T01:10:53.380Z,15.70
2022-09-05T01:13:32.961Z,15.60
2022-09-05T01:16:08.148Z,15.60
2022-09-05T01:18:49.753Z,15.60
2022-09-05T01:21:54.554Z,15.60
2022-09-05T01:25:02.354Z,15.60
2022-09-05T01:28:30.968Z,15.60
2022-09-05T01:30:49.480Z,15.60
2022-09-05T01:33:26.297Z,15.60
2022-09-05T01:36:11.177Z,15.60
2022-09-05T01:39:36.575Z,15.60
2022-09-05T01:41:47.570Z,15.60
2022-09-05T01:44:38.269Z,15.60
2022-09-05T01:47:31.074Z,15.60
2022-09-05T01:50:06.833Z,15.60
2022-09-05T01:52:57.478Z,15.60
2022-09-05T01:56:04.791Z,15.60
2022-09-05T01:58:44.584Z,15.70
2022-09-05T02:01:25.292Z,15.70
2022-09-05T02:04:25.961Z,15.60
2022-09-05T02:07:19.888Z,15.60
2022-09-05T02:10:12.733Z,15.60
2022-09-05T02:12:54.466Z,15.60
2022-09-05T02:15:41.821Z,15.60
2022-09-05T02:18:22.979Z,15.50
2022-09-05T02:20:55.525Z,15.40
2022-09-05T02:23:41.144Z,15.30
2022-09-05T02:26:18.377Z,15.30
2022-09-05T02:28:53.941Z,15.20
2022-09-05T02:31:28.345Z,15.20
2022-09-05T02:34:02.363Z,15.20
2022-09-05T02:36:38.385Z,15.20
2022-09-05T02:45:00.498Z,15.20
2022-09-05T02:45:14.209Z,15.20
2022-09-05T02:45:25.495Z,15.20
2022-09-05T02:48:15.090Z,15.20
2022-09-05T02:57:23.423Z,15.20
2022-09-05T02:57:38.173Z,15.10
2022-09-05T02:58:04.856Z,15.10
2022-09-05T03:00:19.785Z,15.10
2022-09-05T03:03:13.417Z,15.00
2022-09-05T03:05:49.080Z,15.00
2022-09-05T03:08:27.617Z,15.00
2022-09-05T03:11:30.514Z,15.00
2022-09-05T03:14:50.497Z,15.00
2022-09-05T03:17:56.459Z,14.90
2022-09-05T03:21:24.101Z,14.80
2022-09-05T03:24:39.169Z,14.70
2022-09-05T03:27:29.314Z,14.70
2022-09-05T03:30:20.277Z,14.70
2022-09-05T03:33:22.864Z,14.80
2022-09-05T03:36:29.429Z,14.80
2022-09-05T03:39:31.657Z,14.80
2022-09-05T03:42:36.100Z,14.90
2022-09-05T03:45:45.796Z,14.90
2022-09-05T03:48:48.486Z,14.90
2022-09-05T03:57:05.024Z,14.90
2022-09-05T03:57:16.931Z,14.90
2022-09-05T03:58:16.708Z,14.90
2022-09-05T04:01:10.591Z,14.90
2022-09-05T04:08:14.319Z,14.90
2022-09-05T04:08:19.113Z,14.90
2022-09-05T04:09:50.917Z,15.00
2022-09-05T04:12:21.473Z,15.00
2022-09-05T04:14:55.233Z,15.00
2022-09-05T04:17:31.890Z,15.00
2022-09-05T04:20:05.889Z,15.00
2022-09-05T04:22:50.483Z,15.00
2022-09-05T04:25:27.888Z,14.90
2022-09-05T04:28:11.303Z,14.90
2022-09-05T04:30:45.824Z,14.90
2022-09-05T04:33:33.489Z,14.90
2022-09-05T04:36:18.646Z,14.80
2022-09-05T04:38:47.035Z,14.80
2022-09-05T04:41:19.069Z,14.70
2022-09-05T04:44:12.849Z,14.80
2022-09-05T04:46:48.698Z,14.80
2022-09-05T04:49:20.763Z,14.80
2022-09-05T04:52:31.000Z,14.70
2022-09-05T04:55:03.375Z,14.80
2022-09-05T04:57:39.916Z,14.80
2022-09-05T05:06:04.495Z,14.80
2022-09-05T05:06:10.847Z,14.90
2022-09-05T05:06:12.050Z,14.80
2022-09-05T05:08:50.267Z,14.90
2022-09-05T05:17:54.775Z,14.90
2022-09-05T05:17:59.036Z,15.00
2022-09-05T05:18:12.195Z,15.00
2022-09-05T05:20:42.495Z,15.10
2022-09-05T05:23:08.362Z,15.10
2022-09-05T05:25:48.448Z,15.20
2022-09-05T05:28:32.070Z,15.30
2022-09-05T05:31:11.312Z,15.30
2022-09-05T05:33:41.009Z,15.40
2022-09-05T05:36:15.738Z,15.40
2022-09-05T05:38:49.532Z,15.50
2022-09-05T05:41:22.471Z,15.60
2022-09-05T05:43:52.187Z,15.70
2022-09-05T05:46:35.961Z,15.70
2022-09-05T05:49:27.365Z,15.80
2022-09-05T05:52:22.604Z,15.90
2022-09-05T05:55:30.549Z,16.00
2022-09-05T05:58:12.126Z,16.10
2022-09-05T06:01:04.140Z,16.20
2022-09-05T06:04:04.254Z,16.30
2022-09-05T06:06:56.411Z,16.50
2022-09-05T06:14:56.593Z,16.60
2022-09-05T06:14:59.175Z,16.60
2022-09-05T06:17:08.120Z,16.80
2022-09-05T06:21:56.143Z,16.90
2022-09-05T06:23:47.904Z,17.10
2022-09-05T06:26:40.876Z,17.20
2022-09-05T06:29:19.512Z,17.30
2022-09-05T06:32:03.787Z,17.40
2022-09-05T06:35:01.414Z,17.50
2022-09-05T06:37:42.029Z,17.60
2022-09-05T06:40:16.925Z,17.70
2022-09-05T06:43:13.234Z,17.80
2022-09-05T06:46:11.648Z,17.90
2022-09-05T06:49:31.081Z,18.10
2022-09-05T06:51:48.500Z,18.20
2022-09-05T06:55:00.043Z,18.40
2022-09-05T06:57:49.772Z,18.50
2022-09-05T07:00:23.518Z,18.70
2022-09-05T07:03:19.986Z,18.80
2022-09-05T07:05:57.429Z,19.00
2022-09-05T07:08:37.341Z,19.10
2022-09-05T07:11:16.349Z,19.10
2022-09-05T07:13:58.397Z,19.30
2022-09-05T07:16:40.408Z,19.40
2022-09-05T07:19:26.769Z,19.60
2022-09-05T07:22:48.110Z,19.70
2022-09-05T07:25:10.919Z,19.90
2022-09-05T07:28:27.149Z,20.10
2022-09-05T07:30:42.061Z,20.30
2022-09-05T07:33:10.328Z,20.40
2022-09-05T07:35:41.667Z,20.50
2022-09-05T07:38:15.949Z,20.70
2022-09-05T07:40:51.448Z,20.90
2022-09-05T07:43:25.106Z,21.00
2022-09-05T07:46:06.005Z,21.20
2022-09-05T07:48:38.201Z,21.30
2022-09-05T07:56:48.066Z,21.50
2022-09-05T07:56:56.379Z,21.70
2022-09-05T07:57:22.516Z,21.90
2022-09-05T07:59:41.421Z,22.10
2022-09-05T08:02:13.159Z,22.30
2022-09-05T08:04:42.298Z,22.30
2022-09-05T08:07:48.121Z,22.60
2022-09-05T08:10:10.453Z,22.70
2022-09-05T08:12:57.699Z,22.90
2022-09-05T08:16:11.171Z,23.10
2022-09-05T08:18:27.208Z,23.10
2022-09-05T08:20:58.829Z,23.20
2022-09-05T08:23:43.197Z,23.20
2022-09-05T08:26:13.840Z,23.30
2022-09-05T08:28:55.277Z,23.40
2022-09-05T08:31:35.104Z,23.50
2022-09-05T08:34:11.783Z,23.70
2022-09-05T08:36:43.399Z,23.80
2022-09-05T08:39:13.120Z,23.90
2022-09-05T08:42:05.492Z,24.00
2022-09-05T08:46:43.590Z,24.10
2022-09-05T08:47:45.570Z,24.10
2022-09-05T08:50:28.768Z,24.20
2022-09-05T08:53:26.846Z,24.30
2022-09-05T08:56:01.866Z,24.40
2022-09-05T08:59:31.699Z,24.70
2022-09-05T09:02:45.660Z,24.90
2022-09-05T09:05:14.314Z,25.20
2022-09-05T09:07:52.017Z,25.20
2022-09-05T09:10:44.353Z,25.20
2022-09-05T09:13:31.972Z,25.20
2022-09-05T09:16:06.315Z,25.30
2022-09-05T09:18:58.621Z,25.40
2022-09-05T09:21:35.229Z,25.60
2022-09-05T09:24:14.384Z,25.60
2022-09-05T09:26:51.188Z,25.60
2022-09-05T09:29:19.625Z,25.60
2022-09-05T09:32:05.689Z,25.70
2022-09-05T09:34:47.255Z,25.80
2022-09-05T09:37:50.877Z,25.90
2022-09-05T09:40:40.472Z,26.00
2022-09-05T09:43:22.568Z,26.20
2022-09-05T09:46:05.601Z,26.40
2022-09-05T09:48:51.968Z,26.50
2022-09-05T09:51:46.073Z,26.60
2022-09-05T09:54:44.977Z,26.80
2022-09-05T09:57:51.681Z,26.90
2022-09-05T10:00:22.909Z,26.90
2022-09-05T10:05:04.251Z,26.80
2022-09-05T10:10:44.349Z,27.10
2022-09-05T10:10:47.752Z,27.00
2022-09-05T10:13:11.532Z,27.30
2022-09-05T10:16:06.066Z,27.40
2022-09-05T10:18:45.073Z,27.40
2022-09-05T10:21:34.693Z,27.40
2022-09-05T10:24:32.147Z,27.20
2022-09-05T10:27:22.029Z,27.20
2022-09-05T10:30:07.355Z,27.40
2022-09-05T10:35:10.516Z,27.60
2022-09-05T10:35:51.983Z,27.80
2022-09-05T10:38:28.316Z,28.00
2022-09-05T10:41:22.298Z,28.10
2022-09-05T10:43:54.402Z,28.30
2022-09-05T10:46:50.111Z,28.50
2022-09-05T10:49:24.515Z,28.80
2022-09-05T10:52:04.083Z,28.80
2022-09-05T10:55:15.244Z,28.90
2022-09-05T10:57:57.783Z,29.10
2022-09-05T11:02:30.482Z,29.20
2022-09-05T11:03:45.489Z,29.20
2022-09-05T11:06:24.812Z,29.10
2022-09-05T11:09:04.554Z,28.90
2022-09-05T11:11:45.819Z,28.50
2022-09-05T11:14:35.775Z,27.90
2022-09-05T11:17:13.990Z,27.60
2022-09-05T11:19:44.935Z,27.30
2022-09-05T11:22:24.022Z,27.10
2022-09-05T11:24:56.480Z,26.90
2022-09-05T11:27:32.574Z,26.80
2022-09-05T11:30:06.537Z,27.00
2022-09-05T11:39:50.385Z,27.00
2022-09-05T11:39:55.850Z,26.90
2022-09-05T11:40:02.466Z,26.80
2022-09-05T11:42:29.547Z,26.70
2022-09-05T11:45:25.239Z,26.60
2022-09-05T11:48:29.832Z,26.50
2022-09-05T11:51:37.031Z,26.40
2022-09-05T11:54:49.425Z,26.40
2022-09-05T11:57:34.458Z,26.30
2022-09-05T12:00:33.768Z,26.20
2022-09-05T12:03:59.068Z,26.20
2022-09-05T12:06:39.483Z,26.10
2022-09-05T12:09:26.488Z,26.00
2022-09-05T12:12:18.672Z,25.90
2022-09-05T12:15:21.336Z,25.80
2022-09-05T12:18:00.498Z,25.70
2022-09-05T12:20:43.383Z,25.70
2022-09-05T12:23:49.315Z,25.70
2022-09-05T12:27:44.804Z,25.70
2022-09-05T12:29:33.692Z,25.80
2022-09-05T12:33:48.073Z,25.90
2022-09-05T12:36:12.714Z,25.90
2022-09-05T12:40:55.751Z,25.90
2022-09-05T12:42:10.523Z,25.90
2022-09-05T12:44:36.653Z,25.80
2022-09-05T12:46:26.224Z,25.90
2022-09-05T12:49:07.193Z,26.00
2022-09-05T12:51:46.773Z,26.00
2022-09-05T12:54:33.926Z,26.10
2022-09-05T13:02:11.312Z,26.20
2022-09-05T13:03:05.546Z,26.40
2022-09-05T13:03:14.059Z,26.50
2022-09-05T13:05:54.910Z,26.50
2022-09-05T13:08:27.513Z,26.60
2022-09-05T13:13:24.195Z,26.50
2022-09-05T13:15:02.879Z,26.50
2022-09-05T13:16:45.173Z,26.50
2022-09-05T13:19:31.610Z,26.80
2022-09-05T13:22:03.865Z,27.00
2022-09-05T13:24:38.061Z,27.30
2022-09-05T13:27:13.628Z,27.50
2022-09-05T13:31:09.604Z,27.70
2022-09-05T13:38:11.131Z,27.60
2022-09-05T13:38:15.623Z,27.40
2022-09-05T13:38:48.418Z,27.20
2022-09-05T13:41:28.295Z,27.00
2022-09-05T13:44:00.506Z,26.80
2022-09-05T13:46:58.183Z,26.70
2022-09-05T13:49:32.380Z,26.50
2022-09-05T13:52:15.883Z,26.40
2022-09-05T13:54:51.333Z,26.20
2022-09-05T13:57:33.116Z,26.10
2022-09-05T14:00:52.922Z,26.00
2022-09-05T14:03:56.881Z,26.00
2022-09-05T14:10:15.684Z,26.20
2022-09-05T14:12:49.044Z,26.50
2022-09-05T14:15:32.516Z,26.70
2022-09-05T14:18:20.935Z,26.80
2022-09-05T14:21:12.735Z,27.00
2022-09-05T14:23:53.246Z,27.10
2022-09-05T14:26:28.944Z,27.20
2022-09-05T14:29:04.245Z,27.30
2022-09-05T14:37:39.269Z,27.30
2022-09-05T14:37:51.824Z,27.30
2022-09-05T14:38:11.627Z,27.30
2022-09-05T14:41:12.382Z,27.30
2022-09-05T14:44:05.345Z,27.30
2022-09-05T14:46:46.629Z,27.30
2022-09-05T14:49:55.162Z,27.30
2022-09-05T14:52:26.888Z,27.20
2022-09-05T15:02:39.764Z,27.10
2022-09-05T15:02:56.950Z,27.00
2022-09-05T15:06:37.051Z,26.90
2022-09-05T15:11:25.278Z,26.80
2022-09-05T15:12:24.136Z,26.70
2022-09-05T15:15:00.208Z,26.60
2022-09-05T15:17:30.381Z,26.60
2022-09-05T15:20:05.374Z,26.50
2022-09-05T15:22:36.164Z,26.50
2022-09-05T15:25:17.565Z,26.40
2022-09-05T15:27:46.481Z,26.20
2022-09-05T15:30:21.071Z,26.20
2022-09-05T15:32:50.975Z,26.10
2022-09-05T15:35:36.309Z,25.90
2022-09-05T15:38:23.524Z,25.80
2022-09-05T15:41:19.516Z,25.70
2022-09-05T15:43:56.665Z,25.60
2022-09-05T15:46:29.592Z,25.40
2022-09-05T15:49:09.500Z,25.40
2022-09-05T15:51:44.677Z,25.30
2022-09-05T15:54:37.834Z,25.20
2022-09-05T15:57:17.849Z,25.10
2022-09-05T15:59:49.742Z,25.00
2022-09-05T16:02:21.849Z,25.00
2022-09-05T16:10:26.668Z,25.00
2022-09-05T16:10:42.031Z,25.00
2022-09-05T16:11:10.048Z,25.00
2022-09-05T16:13:53.284Z,25.00
2022-09-05T16:23:17.444Z,25.00
2022-09-05T16:23:18.488Z,25.00
2022-09-05T16:23:27.592Z,25.00
2022-09-05T16:25:05.545Z,25.00
2022-09-05T16:27:44.058Z,25.00
2022-09-05T16:30:15.834Z,25.00
2022-09-05T16:32:51.585Z,25.00
2022-09-05T16:35:24.902Z,24.90
2022-09-05T16:38:03.727Z,24.80
2022-09-05T16:40:35.699Z,24.80
2022-09-05T16:43:07.874Z,24.70
2022-09-05T16:45:47.603Z,24.70
2022-09-05T16:48:34.808Z,24.60
2022-09-05T16:51:15.454Z,24.50
2022-09-05T16:53:58.228Z,24.40
2022-09-05T16:56:32.993Z,24.40
2022-09-05T16:59:03.693Z,24.30
2022-09-05T17:01:54.877Z,24.20
2022-09-05T17:05:03.570Z,24.10
2022-09-05T17:07:43.677Z,24.10
2022-09-05T17:10:17.697Z,24.10
2022-09-05T17:12:45.525Z,24.00
2022-09-05T17:15:17.436Z,24.00
2022-09-05T17:18:21.957Z,24.00
2022-09-05T17:20:49.730Z,23.90
2022-09-05T17:26:42.756Z,23.90
2022-09-05T17:29:26.021Z,23.80
2022-09-05T17:29:33.142Z,23.80
2022-09-05T17:32:00.763Z,23.80
2022-09-05T17:34:54.207Z,23.60
2022-09-05T17:38:18.060Z,23.50
2022-09-05T17:41:14.275Z,23.40
2022-09-05T17:43:44.191Z,23.30
2022-09-05T17:46:18.681Z,23.20
2022-09-05T17:49:19.974Z,23.10
2022-09-05T17:52:28.116Z,22.90
2022-09-05T17:54:56.937Z,22.80
2022-09-05T17:57:49.672Z,22.60
2022-09-05T18:00:59.170Z,22.50
2022-09-05T18:04:16.495Z,22.40
2022-09-05T18:07:00.029Z,22.20
2022-09-05T18:09:55.685Z,22.10
2022-09-05T18:13:31.672Z,21.90
2022-09-05T18:15:57.650Z,21.80
2022-09-05T18:19:28.632Z,21.70
2022-09-05T18:21:26.144Z,21.60
2022-09-05T18:24:05.059Z,21.50
2022-09-05T18:26:41.567Z,21.40
2022-09-05T18:29:17.905Z,21.30
2022-09-05T18:32:04.127Z,21.30
2022-09-05T18:35:36.230Z,21.20
2022-09-05T18:38:50.489Z,21.10
2022-09-05T18:41:20.753Z,21.00
2022-09-05T18:44:12.177Z,20.90
2022-09-05T18:46:47.316Z,20.80
2022-09-05T18:50:21.592Z,20.70
2022-09-05T18:52:17.085Z,20.70
2022-09-05T18:55:52.733Z,20.60
2022-09-05T18:57:50.360Z,20.50
2022-09-05T19:00:26.322Z,20.40
2022-09-05T19:03:09.068Z,20.40
2022-09-05T19:05:41.840Z,20.30
2022-09-05T19:08:28.907Z,20.30
2022-09-05T19:11:00.481Z,20.20
2022-09-05T19:13:32.385Z,20.20
2022-09-05T19:16:42.466Z,20.10
2022-09-05T19:19:09.610Z,20.10
2022-09-05T19:21:41.549Z,20.00
2022-09-05T19:24:13.233Z,20.00
2022-09-05T19:26:41.660Z,19.90
2022-09-05T19:36:45.641Z,19.90
2022-09-05T19:36:54.777Z,19.80
2022-09-05T19:37:08.547Z,19.80
2022-09-05T19:37:50.193Z,19.70
2022-09-05T19:47:29.508Z,19.60
2022-09-05T19:47:42.042Z,19.60
2022-09-05T19:47:42.049Z,19.50
2022-09-05T19:49:05.984Z,19.40
2022-09-05T19:51:34.115Z,19.40
2022-09-05T19:54:04.674Z,19.40
2022-09-05T19:56:40.526Z,19.30
2022-09-05T19:59:19.169Z,19.30
2022-09-05T20:01:48.742Z,19.30
2022-09-05T20:04:18.760Z,19.30
2022-09-05T20:06:48.307Z,19.30
2022-09-05T20:09:18.432Z,19.30
2022-09-05T20:11:50.333Z,19.30
2022-09-05T20:14:24.930Z,19.30
2022-09-05T20:16:55.825Z,19.20
2022-09-05T20:19:28.389Z,19.10
2022-09-05T20:21:59.687Z,19.00
2022-09-05T20:24:49.085Z,18.90
2022-09-05T20:27:19.168Z,18.90
2022-09-05T20:29:58.160Z,18.80
2022-09-05T20:32:39.567Z,18.80
2022-09-05T20:40:49.908Z,18.70
2022-09-05T20:43:15.202Z,18.60
2022-09-05T20:43:20.805Z,18.60
2022-09-05T20:44:00.105Z,18.60
2022-09-05T20:51:17.009Z,18.60
2022-09-05T20:54:20.952Z,18.60
2022-09-05T20:54:23.016Z,18.60
2022-09-05T20:55:38.249Z,18.60
2022-09-05T20:58:11.570Z,18.60
2022-09-05T21:01:20.565Z,18.60
2022-09-05T21:03:36.456Z,18.50
2022-09-05T21:06:12.661Z,18.50
2022-09-05T21:08:40.848Z,18.40
2022-09-05T21:11:09.181Z,18.40
2022-09-05T21:13:41.190Z,18.40
2022-09-05T21:16:28.200Z,18.30
2022-09-05T21:18:56.603Z,18.20
2022-09-05T21:21:28.811Z,18.20
2022-09-05T21:24:23.473Z,18.20
2022-09-05T21:26:51.800Z,18.10
2022-09-05T21:29:26.073Z,18.10
2022-09-05T21:32:01.891Z,18.00
2022-09-05T21:34:35.140Z,18.00
2022-09-05T21:37:07.206Z,18.00
2022-09-05T21:39:39.969Z,18.00
2022-09-05T21:43:21.675Z,18.00
2022-09-05T21:47:38.332Z,18.00
2022-09-05T21:47:53.267Z,18.00
2022-09-05T21:50:31.210Z,18.00
2022-09-05T21:54:00.089Z,18.10
2022-09-05T21:59:24.161Z,18.00
2022-09-05T21:59:24.827Z,18.00
2022-09-05T22:01:50.744Z,18.00
2022-09-05T22:04:18.876Z,18.00
2022-09-05T22:06:48.120Z,18.00
2022-09-05T22:09:16.997Z,18.00
2022-09-05T22:11:50.146Z,18.00
2022-09-05T22:14:18.668Z,18.00
2022-09-05T22:16:48.349Z,18.00
2022-09-05T22:19:26.074Z,17.90
2022-09-05T22:22:00.596Z,17.90
2022-09-05T22:24:32.606Z,17.90
2022-09-05T22:27:11.555Z,17.80
2022-09-05T22:29:40.977Z,17.80
2022-09-05T22:32:09.281Z,17.80
2022-09-05T22:34:38.507Z,17.80
2022-09-05T22:37:06.464Z,17.80
2022-09-05T22:39:37.067Z,17.80
2022-09-05T22:42:10.015Z,17.80
2022-09-05T22:44:39.521Z,17.80
2022-09-05T22:47:07.990Z,17.80
2022-09-05T22:49:36.242Z,17.80
2022-09-05T22:52:06.850Z,17.80
2022-09-05T22:54:34.810Z,17.80
2022-09-05T22:57:03.080Z,17.70
2022-09-05T22:59:31.070Z,17.80
2022-09-05T23:01:59.512Z,17.80
2022-09-05T23:04:27.509Z,17.60
2022-09-05T23:06:55.650Z,17.70
2022-09-05T23:09:24.919Z,17.70
2022-09-05T23:11:52.768Z,17.60
2022-09-05T23:14:20.602Z,17.60
2022-09-05T23:16:48.425Z,17.60
2022-09-05T23:19:16.264Z,17.50
2022-09-05T23:21:44.101Z,17.50
2022-09-05T23:24:11.932Z,17.50
2022-09-05T23:26:41.091Z,17.50
2022-09-05T23:29:08.887Z,17.40
2022-09-05T23:31:36.782Z,17.40
2022-09-05T23:34:04.649Z,17.30
2022-09-05T23:36:32.565Z,17.30
2022-09-05T23:39:00.379Z,17.30
2022-09-05T23:41:28.253Z,17.20
2022-09-05T23:43:58.031Z,17.20
2022-09-05T23:46:26.098Z,17.10
2022-09-05T23:48:54.069Z,17.10
2022-09-05T23:51:21.958Z,17.10
2022-09-05T23:53:49.797Z,17.10
2022-09-05T23:56:17.699Z,17.10
2022-09-05T23:58:45.584Z,17.00
